Walled Lake, Michigan
Current Conditions -  °F | °C
As of 10:53 AM on Tuesday 21 Oct 2014 (Local Time) from KPTK Reporting Station
Overcast Overcast  
Wind Chill: 39°   Ceiling: 2200
Heat Index: 45°   Visibility: 10mi
Dew Point: 39°   Wind: 12mph
Humidity: 80%   Direction: 350°N
Pressure: 30.02"   Gusts: 20mph
Location:  42.54°N, 83.47°W
Report Text: KPTK 211453Z 35010G17KT 10SM FEW017 BKN022 OVC035 07/04 A3002 RMK AO2 RAE05 SLP169 P0000 60000 T00720039 51023
Loading
Personal Weather Stations






























Interactive Weather Map New forecast layout! Learn more

10-Day Weather Forecast

Advertisements
Track Severe Weather on mobile